Acomita, New Mexico
Current Conditions -  °F | °C
As of 5:15 PM on Thursday 18 Dec 2014 (Local Time) from KGNT Reporting Station
Overcast Overcast  
Wind Chill: -4°   Ceiling: 6500
Heat Index:   Visibility: 10mi
Dew Point: -3°   Wind: 8mph
Humidity: 83%   Direction: 280°W
Pressure: 30.12"   Gusts: NA
Location:  35.0806°N, 107.597°W
Report Text: KGNT 190015Z AUTO 28007KT 10SM SCT055 BKN065 OVC075 00/M02 A3012 RMK AO2 T00001025
Loading
Personal Weather Stations






























Interactive Weather Map New forecast layout! Learn more

10-Day Weather Forecast

Advertisements
Track Severe Weather on mobile